PWSweather.com
Personal Weather Stations
Station Observations
KJ4AJP
Beautiful Downtown Gardner, Martin, TN 38237

Beautiful Downtown GardnerMartin, TN 38237

Lat: 36.358, Lon: -88.8994

Elevation: 384.3

Station Type: TP1080WC

http://weather.mambm.com/

High Low Average
Temperature 21.0°F-6.1°C 4.8°F-15.1°C 11.1°F-11.6°C
Dew Point 9.8°F-12.3°C -0.3°F-17.9°C 4.2°F-15.4°C
Winds 10.7 mph 17.2 kmh 0.7 mph 1.1 kmh 4.0 mph SW6.4 kmh SW
Wind Gusts 20.6 mph33.2 kmh 3.8 mph6.1 kmh 11.0 mph17.7 kmh
Humidity 89% 56% 74%
Pressure 30.81 in1043.3 mb 30.66 in1038.3 mb -
Precipitation 0.00 in0.0 mm - -
Hour Temp Dew Point Humidity Winds Wind Gusts Pressure Precip Precip Rate Daily Precip Total
12:00 AM 10.0°F-12.2°C 5.5°F-14.7°C 81% 6.9 mph N11.1 kmh N 14.5 mph23.3 kmh 30.66 in1038.3 mb 0.00 in0.0 mm 0.00 in0.0 mm 0.00 in0.0 mm
12:15 AM 10.4°F-12.0°C 5.8°F-14.6°C 81% 5.4 mph N8.7 kmh N 11.4 mph18.3 kmh 30.66 in1038.3 mb 0.00 in0.0 mm 0.00 in0.0 mm 0.00 in0.0 mm
12:30 AM 10.6°F-11.9°C 6.2°F-14.3°C 82% 2.2 mph N3.5 kmh N 11.4 mph18.3 kmh 30.66 in1038.3 mb 0.00 in0.0 mm 0.00 in0.0 mm 0.00 in0.0 mm
12:45 AM 9.9°F-12.3°C 5.5°F-14.7°C 82% 10.7 mph N17.2 kmh N 16.8 mph27.0 kmh 30.66 in1038.3 mb 0.00 in0.0 mm 0.00 in0.0 mm 0.00 in0.0 mm
01:00 AM 9.3°F-12.6°C 5.0°F-15.0°C 82% 8.3 mph N13.4 kmh N 18.3 mph29.5 kmh 30.67 in1038.6 mb 0.00 in0.0 mm 0.00 in0.0 mm 0.00 in0.0 mm
01:15 AM 9.0°F-12.8°C 4.7°F-15.2°C 82% 8.3 mph N13.4 kmh N 15.9 mph25.6 kmh 30.67 in1038.6 mb 0.00 in0.0 mm 0.00 in0.0 mm 0.00 in0.0 mm
01:30 AM 8.8°F-12.9°C 4.8°F-15.1°C 83% 4.5 mph N7.2 kmh N 15.2 mph24.5 kmh 30.68 in1038.9 mb 0.00 in0.0 mm 0.00 in0.0 mm 0.00 in0.0 mm
01:45 AM 8.4°F-13.1°C 4.4°F-15.3°C 83% 8.3 mph N13.4 kmh N 17.4 mph28.0 kmh 30.68 in1038.9 mb 0.00 in0.0 mm 0.00 in0.0 mm 0.00 in0.0 mm
02:00 AM 8.2°F-13.2°C 4.2°F-15.4°C 83% 7.6 mph N12.2 kmh N 20.6 mph33.2 kmh 30.69 in1039.3 mb 0.00 in0.0 mm 0.00 in0.0 mm 0.00 in0.0 mm
02:15 AM 7.9°F-13.4°C 4.1°F-15.5°C 84% 6.0 mph N9.7 kmh N 16.8 mph27.0 kmh 30.69 in1039.3 mb 0.00 in0.0 mm 0.00 in0.0 mm 0.00 in0.0 mm
02:30 AM 7.7°F-13.5°C 4.0°F-15.6°C 84% 6.9 mph N11.1 kmh N 15.2 mph24.5 kmh 30.70 in1039.6 mb 0.00 in0.0 mm 0.00 in0.0 mm 0.00 in0.0 mm
02:45 AM 7.5°F-13.6°C 3.8°F-15.7°C 84% 3.1 mph N5.0 kmh N 13.6 mph21.9 kmh 30.69 in1039.3 mb 0.00 in0.0 mm 0.00 in0.0 mm 0.00 in0.0 mm
03:00 AM 7.2°F-13.8°C 3.4°F-15.9°C 84% 4.5 mph N7.2 kmh N 12.1 mph19.5 kmh 30.70 in1039.6 mb 0.00 in0.0 mm 0.00 in0.0 mm 0.00 in0.0 mm
03:15 AM 7.0°F-13.9°C 3.5°F-15.8°C 85% 6.0 mph N9.7 kmh N 13.0 mph20.9 kmh 30.70 in1039.6 mb 0.00 in0.0 mm 0.00 in0.0 mm 0.00 in0.0 mm
03:30 AM 6.8°F-14.0°C 3.3°F-15.9°C 85% 4.5 mph N7.2 kmh N 14.5 mph23.3 kmh 30.70 in1039.6 mb 0.00 in0.0 mm 0.00 in0.0 mm 0.00 in0.0 mm
03:45 AM 6.6°F-14.1°C 3.2°F-16.0°C 85% 9.8 mph N15.8 kmh N 15.2 mph24.5 kmh 30.70 in1039.6 mb 0.00 in0.0 mm 0.00 in0.0 mm 0.00 in0.0 mm
04:00 AM 6.4°F-14.2°C 3.0°F-16.1°C 85% 8.3 mph N13.4 kmh N 17.4 mph28.0 kmh 30.70 in1039.6 mb 0.00 in0.0 mm 0.00 in0.0 mm 0.00 in0.0 mm
04:15 AM 6.3°F-14.3°C 2.8°F-16.2°C 85% 4.5 mph N7.2 kmh N 13.6 mph21.9 kmh 30.71 in1040.0 mb 0.00 in0.0 mm 0.00 in0.0 mm 0.00 in0.0 mm
04:30 AM 6.1°F-14.4°C 2.6°F-16.3°C 85% 8.3 mph N13.4 kmh N 15.9 mph25.6 kmh 30.72 in1040.3 mb 0.00 in0.0 mm 0.00 in0.0 mm 0.00 in0.0 mm
04:45 AM 5.9°F-14.5°C 2.5°F-16.4°C 85% 6.9 mph N11.1 kmh N 13.6 mph21.9 kmh 30.72 in1040.3 mb 0.00 in0.0 mm 0.00 in0.0 mm 0.00 in0.0 mm
05:00 AM 5.7°F-14.6°C 2.3°F-16.5°C 85% 3.8 mph N6.1 kmh N 10.7 mph17.2 kmh 30.73 in1040.6 mb 0.00 in0.0 mm 0.00 in0.0 mm 0.00 in0.0 mm
05:15 AM 5.7°F-14.6°C 2.3°F-16.5°C 85% 4.5 mph N7.2 kmh N 10.7 mph17.2 kmh 30.73 in1040.6 mb 0.00 in0.0 mm 0.00 in0.0 mm 0.00 in0.0 mm
05:30 AM 5.5°F-14.7°C 2.4°F-16.4°C 86% 4.5 mph N7.2 kmh N 12.1 mph19.5 kmh 30.73 in1040.6 mb 0.00 in0.0 mm 0.00 in0.0 mm 0.00 in0.0 mm
05:45 AM 5.5°F-14.7°C 2.4°F-16.4°C 86% 9.2 mph N14.8 kmh N 15.2 mph24.5 kmh 30.73 in1040.6 mb 0.00 in0.0 mm 0.00 in0.0 mm 0.00 in0.0 mm
06:00 AM 5.4°F-14.8°C 2.4°F-16.4°C 87% 5.4 mph N8.7 kmh N 12.1 mph19.5 kmh 30.74 in1041.0 mb 0.00 in0.0 mm 0.00 in0.0 mm 0.00 in0.0 mm
06:15 AM 5.4°F-14.8°C 2.4°F-16.4°C 87% 6.0 mph N9.7 kmh N 10.7 mph17.2 kmh 30.75 in1041.3 mb 0.00 in0.0 mm 0.00 in0.0 mm 0.00 in0.0 mm
06:30 AM 5.2°F-14.9°C 2.2°F-16.6°C 87% 3.8 mph N6.1 kmh N 9.8 mph15.8 kmh 30.75 in1041.3 mb 0.00 in0.0 mm 0.00 in0.0 mm 0.00 in0.0 mm
06:45 AM 5.2°F-14.9°C 2.5°F-16.4°C 88% 3.8 mph N6.1 kmh N 11.4 mph18.3 kmh 30.76 in1041.7 mb 0.00 in0.0 mm 0.00 in0.0 mm 0.00 in0.0 mm
07:00 AM 5.0°F-15.0°C 2.3°F-16.5°C 88% 3.8 mph N6.1 kmh N 14.5 mph23.3 kmh 30.76 in1041.7 mb 0.00 in0.0 mm 0.00 in0.0 mm 0.00 in0.0 mm
07:15 AM 5.0°F-15.0°C 2.3°F-16.5°C 88% 6.0 mph N9.7 kmh N 10.7 mph17.2 kmh 30.76 in1041.7 mb 0.00 in0.0 mm 0.00 in0.0 mm 0.00 in0.0 mm
07:30 AM 4.8°F-15.1°C 2.1°F-16.6°C 88% 3.8 mph N6.1 kmh N 7.6 mph12.2 kmh 30.77 in1042.0 mb 0.00 in0.0 mm 0.00 in0.0 mm 0.00 in0.0 mm
07:45 AM 5.2°F-14.9°C 2.7°F-16.3°C 89% 6.0 mph N9.7 kmh N 11.4 mph18.3 kmh 30.78 in1042.3 mb 0.00 in0.0 mm 0.00 in0.0 mm 0.00 in0.0 mm
08:00 AM 5.5°F-14.7°C 3.1°F-16.1°C 89% 6.9 mph N11.1 kmh N 11.4 mph18.3 kmh 30.77 in1042.0 mb 0.00 in0.0 mm 0.00 in0.0 mm 0.00 in0.0 mm
08:15 AM 6.4°F-14.2°C 4.0°F-15.6°C 89% 2.2 mph N3.5 kmh N 13.6 mph21.9 kmh 30.78 in1042.3 mb 0.00 in0.0 mm 0.00 in0.0 mm 0.00 in0.0 mm
08:30 AM 7.2°F-13.8°C 4.4°F-15.3°C 88% 4.5 mph NW7.2 kmh NW 8.3 mph13.4 kmh 30.78 in1042.3 mb 0.00 in0.0 mm 0.00 in0.0 mm 0.00 in0.0 mm
08:45 AM 8.1°F-13.3°C 5.1°F-14.9°C 87% 4.5 mph N7.2 kmh N 13.0 mph20.9 kmh 30.79 in1042.7 mb 0.00 in0.0 mm 0.00 in0.0 mm 0.00 in0.0 mm
09:00 AM 8.6°F-13.0°C 5.4°F-14.8°C 86% 6.9 mph N11.1 kmh N 14.5 mph23.3 kmh 30.79 in1042.7 mb 0.00 in0.0 mm 0.00 in0.0 mm 0.00 in0.0 mm
09:15 AM 9.1°F-12.7°C 5.6°F-14.7°C 85% 5.4 mph N8.7 kmh N 15.2 mph24.5 kmh 30.79 in1042.7 mb 0.00 in0.0 mm 0.00 in0.0 mm 0.00 in0.0 mm
09:30 AM 9.9°F-12.3°C 6.1°F-14.4°C 84% 6.9 mph N11.1 kmh N 13.0 mph20.9 kmh 30.79 in1042.7 mb 0.00 in0.0 mm 0.00 in0.0 mm 0.00 in0.0 mm
09:45 AM 10.8°F-11.8°C 6.4°F-14.2°C 82% 8.3 mph N13.4 kmh N 14.5 mph23.3 kmh 30.80 in1043.0 mb 0.00 in0.0 mm 0.00 in0.0 mm 0.00 in0.0 mm
10:00 AM 11.5°F-11.4°C 6.6°F-14.1°C 80% 5.4 mph N8.7 kmh N 13.6 mph21.9 kmh 30.81 in1043.3 mb 0.00 in0.0 mm 0.00 in0.0 mm 0.00 in0.0 mm
10:15 AM 12.7°F-10.7°C 7.8°F-13.4°C 80% 2.2 mph N3.5 kmh N 11.4 mph18.3 kmh 30.80 in1043.0 mb 0.00 in0.0 mm 0.00 in0.0 mm 0.00 in0.0 mm
10:30 AM 13.6°F-10.2°C 8.1°F-13.3°C 78% 5.4 mph N8.7 kmh N 11.4 mph18.3 kmh 30.81 in1043.3 mb 0.00 in0.0 mm 0.00 in0.0 mm 0.00 in0.0 mm
10:45 AM 14.5°F-9.7°C 8.4°F-13.1°C 76% 3.1 mph N5.0 kmh N 10.7 mph17.2 kmh 30.80 in1043.0 mb 0.00 in0.0 mm 0.00 in0.0 mm 0.00 in0.0 mm
11:00 AM 14.9°F-9.5°C 8.2°F-13.2°C 74% 3.1 mph NNW5.0 kmh NNW 11.4 mph18.3 kmh 30.80 in1043.0 mb 0.00 in0.0 mm 0.00 in0.0 mm 0.00 in0.0 mm
11:15 AM 15.4°F-9.2°C 8.1°F-13.3°C 72% 6.9 mph N11.1 kmh N 12.1 mph19.5 kmh 30.79 in1042.7 mb 0.00 in0.0 mm 0.00 in0.0 mm 0.00 in0.0 mm
11:30 AM 16.0°F-8.9°C 8.0°F-13.3°C 70% 6.9 mph NE11.1 kmh NE 12.1 mph19.5 kmh 30.78 in1042.3 mb 0.00 in0.0 mm 0.00 in0.0 mm 0.00 in0.0 mm
11:45 AM 16.3°F-8.7°C 8.3°F-13.2°C 70% 4.5 mph N7.2 kmh N 10.7 mph17.2 kmh 30.77 in1042.0 mb 0.00 in0.0 mm 0.00 in0.0 mm 0.00 in0.0 mm
12:00 PM 17.2°F-8.2°C 8.6°F-13.0°C 68% 2.2 mph NNW3.5 kmh NNW 13.6 mph21.9 kmh 30.77 in1042.0 mb 0.00 in0.0 mm 0.00 in0.0 mm 0.00 in0.0 mm
12:15 PM 17.2°F-8.2°C 7.9°F-13.4°C 66% 4.5 mph NNE7.2 kmh NNE 10.7 mph17.2 kmh 30.76 in1041.7 mb 0.00 in0.0 mm 0.00 in0.0 mm 0.00 in0.0 mm
12:30 PM 18.0°F-7.8°C 8.9°F-12.8°C 67% 5.4 mph N8.7 kmh N 11.4 mph18.3 kmh 30.75 in1041.3 mb 0.00 in0.0 mm 0.00 in0.0 mm 0.00 in0.0 mm
12:45 PM 18.5°F-7.5°C 9.1°F-12.7°C 66% 2.2 mph NNW3.5 kmh NNW 10.7 mph17.2 kmh 30.75 in1041.3 mb 0.00 in0.0 mm 0.00 in0.0 mm 0.00 in0.0 mm
01:00 PM 19.6°F-6.9°C 9.8°F-12.3°C 65% 0.7 mph NNW1.1 kmh NNW 9.2 mph14.8 kmh 30.74 in1041.0 mb 0.00 in0.0 mm 0.00 in0.0 mm 0.00 in0.0 mm
01:15 PM 19.8°F-6.8°C 9.3°F-12.6°C 63% 3.8 mph NNW6.1 kmh NNW 9.8 mph15.8 kmh 30.73 in1040.6 mb 0.00 in0.0 mm 0.00 in0.0 mm 0.00 in0.0 mm
01:30 PM 20.3°F-6.5°C 9.8°F-12.3°C 63% 3.8 mph NNW6.1 kmh NNW 9.2 mph14.8 kmh 30.73 in1040.6 mb 0.00 in0.0 mm 0.00 in0.0 mm 0.00 in0.0 mm
01:45 PM 20.5°F-6.4°C 9.2°F-12.7°C 61% 5.4 mph N8.7 kmh N 9.8 mph15.8 kmh 30.73 in1040.6 mb 0.00 in0.0 mm 0.00 in0.0 mm 0.00 in0.0 mm
02:00 PM 20.3°F-6.5°C 8.7°F-12.9°C 60% 3.1 mph NNW5.0 kmh NNW 10.7 mph17.2 kmh 30.72 in1040.3 mb 0.00 in0.0 mm 0.00 in0.0 mm 0.00 in0.0 mm
02:15 PM 21.0°F-6.1°C 9.4°F-12.6°C 60% 4.5 mph NNW7.2 kmh NNW 10.7 mph17.2 kmh 30.73 in1040.6 mb 0.00 in0.0 mm 0.00 in0.0 mm 0.00 in0.0 mm
02:30 PM 20.3°F-6.5°C 8.3°F-13.2°C 59% 4.5 mph N7.2 kmh N 10.7 mph17.2 kmh 30.73 in1040.6 mb 0.00 in0.0 mm 0.00 in0.0 mm 0.00 in0.0 mm
02:45 PM 20.3°F-6.5°C 7.9°F-13.4°C 58% 6.0 mph N9.7 kmh N 10.7 mph17.2 kmh 30.73 in1040.6 mb 0.00 in0.0 mm 0.00 in0.0 mm 0.00 in0.0 mm
03:00 PM 20.3°F-6.5°C 7.9°F-13.4°C 58% 3.1 mph NNW5.0 kmh NNW 10.7 mph17.2 kmh 30.73 in1040.6 mb 0.00 in0.0 mm 0.00 in0.0 mm 0.00 in0.0 mm
03:15 PM 19.8°F-6.8°C 7.1°F-13.8°C 57% 3.1 mph NNW5.0 kmh NNW 9.8 mph15.8 kmh 30.73 in1040.6 mb 0.00 in0.0 mm 0.00 in0.0 mm 0.00 in0.0 mm
03:30 PM 19.6°F-6.9°C 6.9°F-13.9°C 57% 2.2 mph NNW3.5 kmh NNW 10.7 mph17.2 kmh 30.73 in1040.6 mb 0.00 in0.0 mm 0.00 in0.0 mm 0.00 in0.0 mm
03:45 PM 19.4°F-7.0°C 6.3°F-14.3°C 56% 3.1 mph N5.0 kmh N 12.1 mph19.5 kmh 30.73 in1040.6 mb 0.00 in0.0 mm 0.00 in0.0 mm 0.00 in0.0 mm
04:00 PM 18.9°F-7.3°C 5.8°F-14.6°C 56% 1.6 mph NNW2.6 kmh NNW 9.8 mph15.8 kmh 30.73 in1040.6 mb 0.00 in0.0 mm 0.00 in0.0 mm 0.00 in0.0 mm
04:15 PM 18.1°F-7.7°C 5.1°F-14.9°C 56% 2.2 mph N3.5 kmh N 6.9 mph11.1 kmh 30.73 in1040.6 mb 0.00 in0.0 mm 0.00 in0.0 mm 0.00 in0.0 mm
04:30 PM 16.9°F-8.4°C 4.4°F-15.3°C 57% 3.8 mph N6.1 kmh N 9.2 mph14.8 kmh 30.73 in1040.6 mb 0.00 in0.0 mm 0.00 in0.0 mm 0.00 in0.0 mm
04:45 PM 15.8°F-9.0°C 3.7°F-15.7°C 58% 1.6 mph N2.6 kmh N 9.2 mph14.8 kmh 30.73 in1040.6 mb 0.00 in0.0 mm 0.00 in0.0 mm 0.00 in0.0 mm
05:00 PM 15.1°F-9.4°C 3.4°F-15.9°C 59% 3.1 mph N5.0 kmh N 6.0 mph9.7 kmh 30.74 in1041.0 mb 0.00 in0.0 mm 0.00 in0.0 mm 0.00 in0.0 mm
05:15 PM 14.2°F-9.9°C 2.9°F-16.2°C 60% 2.2 mph N3.5 kmh N 9.2 mph14.8 kmh 30.74 in1041.0 mb 0.00 in0.0 mm 0.00 in0.0 mm 0.00 in0.0 mm
05:30 PM 13.5°F-10.3°C 2.6°F-16.3°C 61% 1.6 mph N2.6 kmh N 6.9 mph11.1 kmh 30.74 in1041.0 mb 0.00 in0.0 mm 0.00 in0.0 mm 0.00 in0.0 mm
05:45 PM 12.7°F-10.7°C 2.3°F-16.5°C 62% 0.7 mph NW1.1 kmh NW 6.9 mph11.1 kmh 30.75 in1041.3 mb 0.00 in0.0 mm 0.00 in0.0 mm 0.00 in0.0 mm
06:00 PM 11.8°F-11.2°C 1.8°F-16.8°C 63% 1.6 mph NNW2.6 kmh NNW 3.8 mph6.1 kmh 30.75 in1041.3 mb 0.00 in0.0 mm 0.00 in0.0 mm 0.00 in0.0 mm
06:15 PM 11.3°F-11.5°C 1.9°F-16.7°C 65% 2.2 mph N3.5 kmh N 6.0 mph9.7 kmh 30.75 in1041.3 mb 0.00 in0.0 mm 0.00 in0.0 mm 0.00 in0.0 mm
06:30 PM 11.1°F-11.6°C 2.1°F-16.6°C 66% 2.2 mph NW3.5 kmh NW 6.9 mph11.1 kmh 30.75 in1041.3 mb 0.00 in0.0 mm 0.00 in0.0 mm 0.00 in0.0 mm
06:45 PM 10.8°F-11.8°C 1.7°F-16.8°C 66% 0.7 mph NNW1.1 kmh NNW 5.4 mph8.7 kmh 30.76 in1041.7 mb 0.00 in0.0 mm 0.00 in0.0 mm 0.00 in0.0 mm
07:00 PM 10.4°F-12.0°C 1.7°F-16.8°C 67% 3.1 mph N5.0 kmh N 7.6 mph12.2 kmh 30.75 in1041.3 mb 0.00 in0.0 mm 0.00 in0.0 mm 0.00 in0.0 mm
07:15 PM 10.2°F-12.1°C 1.8°F-16.8°C 68% 3.1 mph N5.0 kmh N 8.3 mph13.4 kmh 30.75 in1041.3 mb 0.00 in0.0 mm 0.00 in0.0 mm 0.00 in0.0 mm
07:30 PM 10.4°F-12.0°C 2.0°F-16.7°C 68% 3.1 mph N5.0 kmh N 9.2 mph14.8 kmh 30.75 in1041.3 mb 0.00 in0.0 mm 0.00 in0.0 mm 0.00 in0.0 mm
07:45 PM 10.2°F-12.1°C 1.5°F-16.9°C 67% 4.5 mph N7.2 kmh N 7.6 mph12.2 kmh 30.75 in1041.3 mb 0.00 in0.0 mm 0.00 in0.0 mm 0.00 in0.0 mm
08:00 PM 10.0°F-12.2°C 1.4°F-17.0°C 67% 6.0 mph N9.7 kmh N 9.2 mph14.8 kmh 30.76 in1041.7 mb 0.00 in0.0 mm 0.00 in0.0 mm 0.00 in0.0 mm
08:15 PM 10.0°F-12.2°C 1.4°F-17.0°C 67% 5.4 mph NNE8.7 kmh NNE 12.1 mph19.5 kmh 30.76 in1041.7 mb 0.00 in0.0 mm 0.00 in0.0 mm 0.00 in0.0 mm
08:30 PM 9.9°F-12.3°C 1.2°F-17.1°C 67% 5.4 mph N8.7 kmh N 8.3 mph13.4 kmh 30.76 in1041.7 mb 0.00 in0.0 mm 0.00 in0.0 mm 0.00 in0.0 mm
08:45 PM 9.7°F-12.4°C 1.0°F-17.2°C 67% 4.5 mph N7.2 kmh N 8.3 mph13.4 kmh 30.76 in1041.7 mb 0.00 in0.0 mm 0.00 in0.0 mm 0.00 in0.0 mm
09:00 PM 9.5°F-12.5°C 1.2°F-17.1°C 68% 4.5 mph N7.2 kmh N 8.3 mph13.4 kmh 30.76 in1041.7 mb 0.00 in0.0 mm 0.00 in0.0 mm 0.00 in0.0 mm
09:15 PM 9.1°F-12.7°C 0.8°F-17.3°C 68% 3.8 mph N6.1 kmh N 9.2 mph14.8 kmh 30.77 in1042.0 mb 0.00 in0.0 mm 0.00 in0.0 mm 0.00 in0.0 mm
09:30 PM 9.0°F-12.8°C 1.0°F-17.2°C 69% 1.6 mph N2.6 kmh N 7.6 mph12.2 kmh 30.77 in1042.0 mb 0.00 in0.0 mm 0.00 in0.0 mm 0.00 in0.0 mm
09:45 PM 8.6°F-13.0°C 0.6°F-17.4°C 69% 1.6 mph N2.6 kmh N 6.9 mph11.1 kmh 30.76 in1041.7 mb 0.00 in0.0 mm 0.00 in0.0 mm 0.00 in0.0 mm
10:00 PM 8.4°F-13.1°C 0.4°F-17.6°C 69% 2.2 mph NNE3.5 kmh NNE 8.3 mph13.4 kmh 30.76 in1041.7 mb 0.00 in0.0 mm 0.00 in0.0 mm 0.00 in0.0 mm
10:15 PM 8.1°F-13.3°C 0.4°F-17.6°C 70% 3.1 mph N5.0 kmh N 7.6 mph12.2 kmh 30.76 in1041.7 mb 0.00 in0.0 mm 0.00 in0.0 mm 0.00 in0.0 mm
10:30 PM 7.9°F-13.4°C 0.2°F-17.7°C 70% 3.8 mph NNE6.1 kmh NNE 6.0 mph9.7 kmh 30.76 in1041.7 mb 0.00 in0.0 mm 0.00 in0.0 mm 0.00 in0.0 mm
10:45 PM 7.7°F-13.5°C 0.1°F-17.7°C 70% 1.6 mph N2.6 kmh N 7.6 mph12.2 kmh 30.75 in1041.3 mb 0.00 in0.0 mm 0.00 in0.0 mm 0.00 in0.0 mm
11:00 PM 7.5°F-13.6°C 0.2°F-17.7°C 71% 3.1 mph NNE5.0 kmh NNE 6.9 mph11.1 kmh 30.74 in1041.0 mb 0.00 in0.0 mm 0.00 in0.0 mm 0.00 in0.0 mm
11:15 PM 7.2°F-13.8°C -0.2°F-17.9°C 71% 2.2 mph N3.5 kmh N 7.6 mph12.2 kmh 30.74 in1041.0 mb 0.00 in0.0 mm 0.00 in0.0 mm 0.00 in0.0 mm
11:30 PM 7.0°F-13.9°C -0.3°F-17.9°C 71% 0.7 mph N1.1 kmh N 6.0 mph9.7 kmh 30.73 in1040.6 mb 0.00 in0.0 mm 0.00 in0.0 mm 0.00 in0.0 mm
11:45 PM 6.8°F-14.0°C -0.2°F-17.9°C 72% 1.6 mph NNE2.6 kmh NNE 6.9 mph11.1 kmh 30.73 in1040.6 mb 0.00 in0.0 mm 0.00 in0.0 mm 0.00 in0.0 mm